Time;durP1;ratioP1;P1;durP2;ratioP2;P2;SDS_P1;SDS_P2;PMS_P1;PMS_P2;Temp;Humidity;BMP_temperature;BMP_pressure;BME280_temperature;BME280_humidity;BME280_pressure;Samples;Min_cycle;Max_cycle;Signal;HPM_P1;HPM_P2
2022/03/10 00:00:22;;;;;;;;;;;;;;;-144.99;100.00;61100.13;5042848;28;19982;-75
2022/03/10 00:02:48;;;;;;;;;;;;;;;-144.99;100.00;61100.13;5062335;28;20127;-76
2022/03/10 00:05:15;;;;;;;;;;;;;;;-144.99;100.00;61100.13;5038066;28;19981;-75
2022/03/10 00:07:42;;;;;;;;;;;;;;;-144.99;100.00;61100.13;5036793;28;20063;-75
2022/03/10 00:10:09;;;;;;;;;;;;;;;-144.99;100.00;61100.13;5036028;28;19973;-75
2022/03/10 00:12:36;;;;;;;;;;;;;;;-144.99;100.00;61100.13;5039443;28;20873;-75
2022/03/10 00:15:05;;;;;;;;;;;;;;;-144.99;100.00;61100.13;5030232;28;19974;-76
2022/03/10 00:17:31;;;;;;;;;;;;;;;-144.99;100.00;61100.13;5036108;28;20345;-76
2022/03/10 00:19:58;;;;;;;;;;;;;;;-144.99;100.00;61100.13;5040958;28;19973;-76
2022/03/10 00:22:24;;;;;;;;;;;;;;;-144.99;100.00;61100.13;5031162;28;20039;-75
2022/03/10 00:24:50;;;;;;;;;;;;;;;-144.99;100.00;61100.13;5044021;28;19977;-75
2022/03/10 00:27:17;;;;;;;;;;;;;;;-144.99;100.00;61100.13;5035056;28;20016;-75
2022/03/10 00:29:44;;;;;;;;;;;;;;;-144.99;100.00;61100.13;5043611;28;20352;-75
2022/03/10 00:32:11;;;;;;;;;;;;;;;-144.99;100.00;61100.13;5034785;28;19973;-76
2022/03/10 00:34:37;;;;;;;;;;;;;;;-144.99;100.00;61100.13;5032598;28;19977;-75
2022/03/10 00:37:05;;;;;;;;;;;;;;;-144.99;100.00;61100.13;5039282;28;20008;-76
2022/03/10 00:39:31;;;;;;;;;;;;;;;-144.99;100.00;61100.13;5039835;28;19973;-75
2022/03/10 00:41:57;;;;;;;;;;;;;;;-144.99;100.00;61100.13;5035227;28;19973;-76
2022/03/10 00:44:24;;;;;;;;;;;;;;;-144.99;100.00;61100.13;5038536;28;19987;-75
2022/03/10 00:46:52;;;;;;;;;;;;;;;-144.99;100.00;61100.13;5033358;28;20079;-75
2022/03/10 01:50:18;;;;;;;;;;;;;;;-144.99;100.00;61100.13;5026636;28;20446;-74
2022/03/10 01:52:45;;;;;;;;;;;;;;;-144.99;100.00;61100.13;5041343;28;19961;-74
2022/03/10 01:55:12;;;;;;;;;;;;;;;-144.99;100.00;61100.13;5051428;28;20020;-74
2022/03/10 01:57:38;;;;;;;;;;;;;;;-144.99;100.00;61100.13;5050936;28;20004;-75
2022/03/10 02:00:06;;;;;;;;;;;;;;;-144.99;100.00;61100.13;5041674;28;19973;-74
2022/03/10 02:02:32;;;;;;;;;;;;;;;-144.99;100.00;61100.13;5035610;28;19980;-75
2022/03/10 02:04:59;;;;;;;;;;;;;;;-144.99;100.00;61100.13;5037274;28;19984;-76
2022/03/10 02:10:20;;;;;;;;;;;;;;;-144.99;100.00;61100.13;5032704;28;19980;-75
2022/03/10 02:12:47;;;;;;;;;;;;;;;-144.99;100.00;61100.13;5040784;28;20071;-75
2022/03/10 02:17:58;;;;;;;;;;;;;;;-144.99;100.00;61100.13;5031735;28;19996;-75
2022/03/10 02:20:24;;;;;;;;;;;;;;;-144.99;100.00;61100.13;5032737;28;20205;-75
2022/03/10 03:51:23;;;;;;;;;;;;;;;-144.99;100.00;61100.13;5034599;28;19975;-74
2022/03/10 03:53:50;;;;;;;;;;;;;;;-144.99;100.00;61100.13;5039532;28;19977;-75
2022/03/10 03:56:16;;;;;;;;;;;;;;;-144.99;100.00;61100.13;5044148;28;19974;-75
2022/03/10 03:58:43;;;;;;;;;;;;;;;-144.99;100.00;61100.13;5043526;28;20498;-74
2022/03/10 04:01:09;;;;;;;;;;;;;;;-144.99;100.00;61100.13;5034539;28;20031;-75
2022/03/10 04:03:36;;;;;;;;;;;;;;;-144.99;100.00;61100.13;5035493;28;19981;-74
2022/03/10 04:06:02;;;;;;;;;;;;;;;-144.99;100.00;61100.13;5046862;28;20060;-75
2022/03/10 04:08:30;;;;;;;;;;;;;;;-144.99;100.00;61100.13;5040462;28;19997;-74
2022/03/10 04:10:56;;;;;;;;;;;;;;;-144.99;100.00;61100.13;5038615;28;19985;-74
2022/03/10 04:13:23;;;;;;;;;;;;;;;-144.99;100.00;61100.13;5030057;28;19978;-74
2022/03/10 04:15:49;;;;;;;;;;;;;;;-144.99;100.00;61100.13;5032856;28;19977;-75
2022/03/10 04:18:16;;;;;;;;;;;;;;;-144.99;100.00;61100.13;5042627;28;20029;-73
2022/03/10 05:06:28;;;;;;;;;;;;;;;-144.99;100.00;61100.13;5028733;28;20420;-77
2022/03/10 05:08:54;;;;;;;;;;;;;;;-144.99;100.00;61100.13;5036006;28;20071;-75
2022/03/10 05:11:20;;;;;;;;;;;;;;;-144.99;100.00;61100.13;5033761;28;20080;-75
2022/03/10 05:13:46;;;;;;;;;;;;;;;-144.99;100.00;61100.13;5020553;28;19976;-75
2022/03/10 05:16:13;;;;;;;;;;;;;;;-144.99;100.00;61100.13;5039208;28;20247;-75
2022/03/10 05:18:39;;;;;;;;;;;;;;;-144.99;100.00;61100.13;5037424;28;20004;-75
2022/03/10 05:21:05;;;;;;;;;;;;;;;-144.99;100.00;61100.13;5091643;22;20000;-74
2022/03/10 05:23:33;;;;;;;;;;;;;;;-144.99;100.00;61100.13;5037300;28;19980;-75
2022/03/10 05:25:59;;;;;;;;;;;;;;;-144.99;100.00;61100.13;5051556;28;19981;-74
2022/03/10 05:28:26;;;;;;;;;;;;;;;-144.99;100.00;61100.13;5043230;28;19993;-74
2022/03/10 05:30:52;;;;;;;;;;;;;;;-144.99;100.00;61100.13;5051478;28;20507;-75
2022/03/10 05:33:18;;;;;;;;;;;;;;;-144.99;100.00;61100.13;5049321;28;19973;-75
2022/03/10 05:35:45;;;;;;;;;;;;;;;-144.99;100.00;61100.13;5047305;28;19984;-74
2022/03/10 05:38:11;;;;;;;;;;;;;;;-144.99;100.00;61100.13;5046937;28;20351;-75
2022/03/10 05:40:39;;;;;;;;;;;;;;;-144.99;100.00;61100.13;5040471;28;20016;-76
2022/03/10 05:43:05;;;;;;;;;;;;;;;-144.99;100.00;61100.13;5045191;28;19978;-72
2022/03/10 05:45:31;;;;;;;;;;;;;;;-144.99;100.00;61100.13;5041003;28;20440;-74
2022/03/10 05:47:58;;;;;;;;;;;;;;;-144.99;100.00;61100.13;5047236;28;19997;-75
2022/03/10 05:50:25;;;;;;;;;;;;;;;-144.99;100.00;61100.13;5051640;28;19968;-75
2022/03/10 05:52:52;;;;;;;;;;;;;;;-144.99;100.00;61100.13;5046797;28;20004;-76
2022/03/10 05:55:26;;;;;;;;;;;;;;;;;;5092647;27;20060;-62
2022/03/10 05:57:52;;;;;;;;;;;;;;;;;;5085486;28;19984;-61
2022/03/10 06:00:18;;;;;;;;;;;;;;;;;;5084351;28;19984;-62
2022/03/10 06:02:44;;;;;;;;;;;;;;;;;;5087941;28;19977;-67
2022/03/10 06:05:10;;;;;;;;;;;;;;;;;;5086757;28;19988;-63
2022/03/10 06:07:37;;;;;;;;;;;;;;;;;;5091711;28;19980;-70
2022/03/10 06:10:03;;;;;;;;;;;;;;;;;;5089272;28;20016;-70
2022/03/10 06:12:29;;;;;;;;;;;;;;;;;;5093263;28;19984;-69
2022/03/10 06:14:56;;;;;;;;;;;;;;;;;;5091606;28;20511;-70
2022/03/10 06:17:22;;;;;;;;;;;;;;;;;;5095658;28;20049;-69
2022/03/10 06:19:48;;;;;;;;;;;;;;;;;;4379219;28;10000742;-70
2022/03/10 06:22:14;;;;;;;;;;;;;;;;;;5083700;28;19988;-69
2022/03/10 06:24:40;;;;;;;;;;;;;;;;;;5083884;28;20001;-69
2022/03/10 06:27:06;;;;;;;;;;;;;;;;;;5084455;28;19977;-68
2022/03/10 06:29:32;;;;;;;;;;;;;;;;;;5084675;28;20032;-69
2022/03/10 06:31:59;;;;;;;;;;;;;;;;;;5084721;28;19980;-68
2022/03/10 06:34:25;;;;;;;;;;;;;;;;;;5083751;28;20337;-69
2022/03/10 06:36:51;;;;;;;;;;;;;;;;;;5084660;28;19985;-68
2022/03/10 06:39:17;;;;;;;;;;;;;;;;;;5082246;28;19988;-69
2022/03/10 06:41:43;;;;;;;;;;;;;;;;;;5071189;28;20018;-71
2022/03/10 06:44:09;;;;;;;;;;;;;;;;;;5084035;28;20551;-68
2022/03/10 06:46:35;;;;;;;;;;;;;;;;;;5072122;28;20432;-68
2022/03/10 06:49:02;;;;;;;;;;;;;;;;;;5083762;28;19987;-69
2022/03/10 06:51:28;;;;;;;;;;;;;;;;;;5070353;28;19981;-69
2022/03/10 06:53:54;;;;;;;;;;;;;;;;;;5091207;28;20005;-70
2022/03/10 06:56:21;;;;;;;;;;;;;;;;;;5104500;28;19952;-69
2022/03/10 06:58:47;;;;;;;;;;;;;;;;;;5104674;28;19985;-68
2022/03/10 07:01:13;;;;;;;;;;;;;;;;;;5104417;28;19985;-71
2022/03/10 07:03:39;;;;;;;;;;;;;;;;;;5103642;28;20352;-69
2022/03/10 07:06:05;;;;;;;;;;;;;;;;;;5094033;28;19989;-70
2022/03/10 07:08:32;;;;;;;;;;;;;;;;;;5090146;28;20319;-69
2022/03/10 07:10:58;;;;;;;;;;;;;;;;;;5091227;28;19988;-69
2022/03/10 07:13:24;;;;;;;;;;;;;;;;;;5092262;28;20007;-69
2022/03/10 07:15:50;;;;;;;;;;;;;;;;;;5093660;28;19991;-69
2022/03/10 07:18:16;;;;;;;;;;;;;;;;;;5090181;28;19981;-69
2022/03/10 07:20:42;;;;;;;;;;;;;;;;;;5087021;28;19992;-69
2022/03/10 07:23:09;;;;;;;;;;;;;;;;;;5087372;28;20004;-69
2022/03/10 07:25:35;;;;;;;;;;;;;;;;;;5093009;28;20053;-69
2022/03/10 07:28:01;;;;;;;;;;;;;;;;;;5094264;28;19981;-69
2022/03/10 07:30:27;;;;;;;;;;;;;;;;;;5093088;28;20030;-70
2022/03/10 07:32:53;;;;;;;;;;;;;;;;;;5089901;28;19981;-69
2022/03/10 07:35:19;;;;;;;;;;;;;;;;;;5089545;28;20008;-68
2022/03/10 07:37:48;;;;;;;;;;;;;;;;;;5089485;28;19987;-68
2022/03/10 07:40:14;;;;;;;;;;;;;;;;;;5089953;28;19995;-69
2022/03/10 07:42:40;;;;;;;;;;;;;;;;;;5089915;28;19980;-68
2022/03/10 07:45:06;;;;;;;;;;;;;;;;;;5089456;28;20002;-68
2022/03/10 07:47:32;;;;;;;;;;;;;;;;;;5089068;28;20075;-69
2022/03/10 07:49:58;;;;;;;;;;;;;;;;;;5081171;28;19981;-68
2022/03/10 07:52:24;;;;;;;;;;;;;;;;;;5084658;28;20289;-69
2022/03/10 07:54:51;;;;;;;;;;;;;;;;;;5089366;28;20384;-69
2022/03/10 07:57:17;;;;;;;;;;;;;;;;;;5089684;28;20024;-69
2022/03/10 07:59:43;;;;;;;;;;;;;;;;;;5089300;28;19979;-70
2022/03/10 08:02:09;;;;;;;;;;;;;;;;;;5089369;28;19980;-68
2022/03/10 08:04:35;;;;;;;;;;;;;;;;;;5089262;28;19996;-70
2022/03/10 08:07:01;;;;;;;;;;;;;;;;;;5090060;28;19974;-69
2022/03/10 08:09:27;;;;;;;;;;;;;;;;;;5088848;28;20002;-70
2022/03/10 08:11:54;;;;;;;;;;;;;;;;;;5089327;28;19986;-71
2022/03/10 08:14:20;;;;;;;;;;;;;;;;;;5089175;28;19996;-71
2022/03/10 08:16:46;;;;;;;;;;;;;;;;;;5087412;28;19980;-69
2022/03/10 08:19:12;;;;;;;;;;;;;;;;;;5087872;28;19974;-70
2022/03/10 08:21:38;;;;;;;;;;;;;;;;;;5087200;28;19982;-70
2022/03/10 08:24:04;;;;;;;;;;;;;;;;;;5088358;28;20003;-69
2022/03/10 08:26:31;;;;;;;;;;;;;;;;;;5089285;28;19993;-70
2022/03/10 08:28:57;;;;;;;;;;;;;;;;;;5088865;28;19981;-69
2022/03/10 08:31:24;;;;;;;;;;;;;;;;;;5088782;28;19990;-68
2022/03/10 08:33:50;;;;;;;;;;;;;;;;;;5088242;28;20133;-69
2022/03/10 08:36:16;;;;;;;;;;;;;;;;;;5088813;28;19982;-70
2022/03/10 08:38:43;;;;;;;;;;;;;;;;;;5088213;28;20490;-69
2022/03/10 08:41:09;;;;;;;;;;;;;;;;;;5088727;28;19988;-70
2022/03/10 08:43:37;;;;;;;;;;;;;;;;;;5088313;28;20106;-68
2022/03/10 08:46:03;;;;;;;;;;;;;;;;;;5087824;28;20015;-69
2022/03/10 08:48:31;;;;;;;;;;;;;;;;;;5088096;28;19980;-70
2022/03/10 08:50:58;;;;;;;;;;;;;;;;;;5076213;28;20126;-69
2022/03/10 08:53:24;;;;;;;;;;;;;;;;;;5088220;28;20007;-69
2022/03/10 08:55:50;;;;;;;;;;;;;;;;;;5087701;28;19986;-69
2022/03/10 08:58:16;;;;;;;;;;;;;;;;;;5087978;28;19984;-70
2022/03/10 09:00:43;;;;;;;;;;;;;;;;;;5087568;28;19985;-68
2022/03/10 09:03:09;;;;;;;;;;;;;;;;;;5087625;28;20350;-69
2022/03/10 09:05:36;;;;;;;;;;;;;;;;;;5088167;28;20347;-70
2022/03/10 09:08:03;;;;;;;;;;;;;;;;;;5087445;28;20032;-70
2022/03/10 09:10:29;;;;;;;;;;;;;;;;;;5087879;28;20251;-71
2022/03/10 09:12:55;;;;;;;;;;;;;;;;;;5087711;28;19978;-70
2022/03/10 09:15:21;;;;;;;;;;;;;;;;;;5087219;28;19994;-69
2022/03/10 09:17:48;;;;;;;;;;;;;;;;;;5078747;28;19986;-68
2022/03/10 09:20:14;;;;;;;;;;;;;;;;;;5085397;28;20106;-69
2022/03/10 09:22:40;;;;;;;;;;;;;;;;;;5087903;28;20005;-69
2022/03/10 09:25:08;;;;;;;;;;;;;;;;;;5087389;28;20366;-69
2022/03/10 09:27:34;;;;;;;;;;;;;;;;;;5087840;28;20009;-70
2022/03/10 09:30:00;;;;;;;;;;;;;;;;;;5087369;28;19982;-72
2022/03/10 09:32:26;;;;;;;;;;;;;;;;;;5087783;28;20001;-70
2022/03/10 09:34:53;;;;;;;;;;;;;;;;;;5086876;28;20006;-69
2022/03/10 09:37:19;;;;;;;;;;;;;;;;;;5087677;28;19983;-68
2022/03/10 09:39:45;;;;;;;;;;;;;;;;;;5087159;28;19979;-69
2022/03/10 09:42:11;;;;;;;;;;;;;;;;;;5087331;28;19978;-71
2022/03/10 09:44:40;;;;;;;;;;;;;;;;;;5086893;28;19995;-69
2022/03/10 09:47:06;;;;;;;;;;;;;;;;;;5086595;28;19979;-69
2022/03/10 09:49:33;;;;;;;;;;;;;;;;;;5082779;28;19978;-70
2022/03/10 09:51:59;;;;;;;;;;;;;;;;;;5078341;28;20074;-69
2022/03/10 09:54:25;;;;;;;;;;;;;;;;;;5086266;28;19999;-69
2022/03/10 09:56:52;;;;;;;;;;;;;;;;;;5087066;28;19967;-70
2022/03/10 09:59:18;;;;;;;;;;;;;;;;;;5087550;28;19979;-68
2022/03/10 10:01:44;;;;;;;;;;;;;;;;;;5087694;28;19978;-68
2022/03/10 10:04:10;;;;;;;;;;;;;;;;;;5086827;28;19986;-69
2022/03/10 10:06:36;;;;;;;;;;;;;;;;;;5087269;28;20458;-70
2022/03/10 10:09:02;;;;;;;;;;;;;;;;;;5087377;28;20005;-69
2022/03/10 10:11:28;;;;;;;;;;;;;;;;;;5087433;28;20077;-70
2022/03/10 10:13:55;;;;;;;;;;;;;;;;;;5086797;28;19995;-70
2022/03/10 10:16:21;;;;;;;;;;;;;;;;;;5086966;28;19994;-69
2022/03/10 10:18:48;;;;;;;;;;;;;;;;;;5085885;28;20114;-70
2022/03/10 10:21:18;;;;;;;;;;;;;;;;;;5083939;28;20437;-69
2022/03/10 10:23:44;;;;;;;;;;;;;;;;;;5086845;28;19997;-69
2022/03/10 10:26:10;;;;;;;;;;;;;;;;;;5087253;28;19990;-70
2022/03/10 10:28:36;;;;;;;;;;;;;;;;;;5084056;28;19985;-70
2022/03/10 10:31:03;;;;;;;;;;;;;;;;;;5087468;28;19979;-70
2022/03/10 10:33:29;;;;;;;;;;;;;;;;;;5086693;28;20001;-69
2022/03/10 10:35:55;;;;;;;;;;;;;;;;;;5087191;28;19993;-70
2022/03/10 10:38:21;;;;;;;;;;;;;;;;;;5086563;28;19989;-68
2022/03/10 10:40:50;;;;;;;;;;;;;;;;;;5089315;28;20250;-69
2022/03/10 10:43:16;;;;;;;;;;;;;;;;;;5091025;28;20002;-68
2022/03/10 10:45:42;;;;;;;;;;;;;;;;;;5089888;28;19979;-69
2022/03/10 10:48:08;;;;;;;;;;;;;;;;;;5090326;28;19971;-70
2022/03/10 10:50:35;;;;;;;;;;;;;;;;;;5077743;28;20333;-70
2022/03/10 10:53:01;;;;;;;;;;;;;;;;;;5076568;28;20470;-68
2022/03/10 10:55:27;;;;;;;;;;;;;;;;;;5090080;28;19998;-69
2022/03/10 10:57:53;;;;;;;;;;;;;;;;;;5090441;28;19983;-69
2022/03/10 11:00:19;;;;;;;;;;;;;;;;;;5090256;28;19995;-68
2022/03/10 11:02:45;;;;;;;;;;;;;;;;;;5090129;28;19986;-70
2022/03/10 11:05:14;;;;;;;;;;;;;;;;;;5089921;28;19994;-70
2022/03/10 11:07:40;;;;;;;;;;;;;;;;;;5090392;28;19990;-69
2022/03/10 11:10:07;;;;;;;;;;;;;;;;;;5090320;28;20065;-68
2022/03/10 11:12:34;;;;;;;;;;;;;;;;;;5090606;28;20025;-69
2022/03/10 11:15:00;;;;;;;;;;;;;;;;;;5089611;28;20383;-68
2022/03/10 11:17:27;;;;;;;;;;;;;;;;;;5088374;28;20462;-69
2022/03/10 11:19:53;;;;;;;;;;;;;;;;;;5086774;28;20015;-68
2022/03/10 11:22:19;;;;;;;;;;;;;;;;;;5089063;28;19979;-69
2022/03/10 11:24:46;;;;;;;;;;;;;;;;;;5089193;28;19993;-68
2022/03/10 11:27:12;;;;;;;;;;;;;;;;;;5090336;28;19981;-68
2022/03/10 11:29:38;;;;;;;;;;;;;;;;;;5089770;28;19976;-70
2022/03/10 11:32:04;;;;;;;;;;;;;;;;;;5089484;28;20022;-68
2022/03/10 11:34:30;;;;;;;;;;;;;;;;;;5088322;28;20488;-69
2022/03/10 11:36:56;;;;;;;;;;;;;;;;;;5089018;28;20327;-68
2022/03/10 11:39:23;;;;;;;;;;;;;;;;;;5089014;28;19983;-69
2022/03/10 11:41:50;;;;;;;;;;;;;;;;;;5090067;28;20167;-68
2022/03/10 11:44:16;;;;;;;;;;;;;;;;;;5089362;28;19994;-69
2022/03/10 11:46:42;;;;;;;;;;;;;;;;;;5089237;28;19974;-68
2022/03/10 11:49:09;;;;;;;;;;;;;;;;;;5088168;28;19974;-68
2022/03/10 11:51:36;;;;;;;;;;;;;;;;;;5076866;28;19982;-69
2022/03/10 11:54:02;;;;;;;;;;;;;;;;;;5088220;28;20091;-70
2022/03/10 11:56:28;;;;;;;;;;;;;;;;;;5089270;28;19989;-69
2022/03/10 11:58:55;;;;;;;;;;;;;;;;;;5088988;28;19978;-68
2022/03/10 12:01:21;;;;;;;;;;;;;;;;;;5089559;28;20286;-68
2022/03/10 12:03:47;;;;;;;;;;;;;;;;;;5089045;28;19999;-67
2022/03/10 12:06:15;;;;;;;;;;;;;;;;;;5088601;28;19982;-69
2022/03/10 12:08:42;;;;;;;;;;;;;;;;;;5088379;28;19986;-70
2022/03/10 12:11:08;;;;;;;;;;;;;;;;;;5089211;28;19981;-68
2022/03/10 12:13:34;;;;;;;;;;;;;;;;;;5088508;28;19997;-67
2022/03/10 12:16:00;;;;;;;;;;;;;;;;;;5088557;28;19999;-69
2022/03/10 12:18:26;;;;;;;;;;;;;;;;;;5088398;28;19979;-69
2022/03/10 12:20:54;;;;;;;;;;;;;;;;;;5086477;28;19989;-69
2022/03/10 12:23:21;;;;;;;;;;;;;;;;;;5088264;28;20021;-71
2022/03/10 12:25:47;;;;;;;;;;;;;;;;;;5088859;28;19978;-68
2022/03/10 12:28:13;;;;;;;;;;;;;;;;;;5088869;28;20388;-68
2022/03/10 12:30:39;;;;;;;;;;;;;;;;;;5088950;28;19966;-69
2022/03/10 12:33:05;;;;;;;;;;;;;;;;;;5088371;28;19984;-69
2022/03/10 12:35:32;;;;;;;;;;;;;;;;;;5088403;28;19988;-69
2022/03/10 12:37:58;;;;;;;;;;;;;;;;;;5088710;28;19969;-68
2022/03/10 12:40:24;;;;;;;;;;;;;;;;;;5088728;28;19971;-68
2022/03/10 12:42:51;;;;;;;;;;;;;;;;;;5088502;28;19966;-72
2022/03/10 12:45:18;;;;;;;;;;;;;;;;;;5088675;28;20066;-69
2022/03/10 12:47:44;;;;;;;;;;;;;;;;;;5087536;28;19969;-69
2022/03/10 12:50:10;;;;;;;;;;;;;;;;;;5079649;28;20349;-70
2022/03/10 12:52:40;;;;;;;;;;;;;;;;;;5084997;28;20438;-69
2022/03/10 12:55:06;;;;;;;;;;;;;;;;;;5088683;28;19982;-68
2022/03/10 12:57:32;;;;;;;;;;;;;;;;;;5088976;28;19970;-67
2022/03/10 13:00:00;;;;;;;;;;;;;;;;;;5088855;28;19975;-68
2022/03/10 13:02:27;;;;;;;;;;;;;;;;;;5087905;28;20291;-69
2022/03/10 13:04:53;;;;;;;;;;;;;;;;;;5087533;28;19982;-68
2022/03/10 13:07:19;;;;;;;;;;;;;;;;;;5088211;28;19957;-70
2022/03/10 13:09:46;;;;;;;;;;;;;;;;;;5087736;28;19961;-68
2022/03/10 13:12:12;;;;;;;;;;;;;;;;;;5088154;28;19971;-68
2022/03/10 13:14:38;;;;;;;;;;;;;;;;;;5087981;28;19993;-68
2022/03/10 13:17:04;;;;;;;;;;;;;;;;;;5086595;28;19969;-68
2022/03/10 13:19:30;;;;;;;;;;;;;;;;;;5086128;28;19959;-67
2022/03/10 13:21:56;;;;;;;;;;;;;;;;;;5086820;28;20298;-68
2022/03/10 13:24:23;;;;;;;;;;;;;;;;;;5087180;28;19990;-70
2022/03/10 13:26:49;;;;;;;;;;;;;;;;;;5084686;28;20117;-67
2022/03/10 13:29:15;;;;;;;;;;;;;;;;;;5087807;28;19956;-69
2022/03/10 13:31:42;;;;;;;;;;;;;;;;;;5087561;28;19960;-68
2022/03/10 13:34:08;;;;;;;;;;;;;;;;;;5087510;28;20052;-69
2022/03/10 13:36:34;;;;;;;;;;;;;;;;;;5087632;28;19978;-70
2022/03/10 13:39:00;;;;;;;;;;;;;;;;;;5087596;28;19961;-69
2022/03/10 13:41:26;;;;;;;;;;;;;;;;;;5087567;28;20533;-68
2022/03/10 13:43:52;;;;;;;;;;;;;;;;;;5087541;28;20370;-68
2022/03/10 13:46:20;;;;;;;;;;;;;;;;;;5090036;28;19960;-69
2022/03/10 13:48:46;;;;;;;;;;;;;;;;;;5091371;28;19949;-68
2022/03/10 13:51:13;;;;;;;;;;;;;;;;;;5076987;28;20467;-69
2022/03/10 13:53:39;;;;;;;;;;;;;;;;;;5086802;28;20758;-67
2022/03/10 13:56:05;;;;;;;;;;;;;;;;;;5087506;28;19970;-69
2022/03/10 13:58:31;;;;;;;;;;;;;;;;;;5086896;28;19965;-68
2022/03/10 14:00:57;;;;;;;;;;;;;;;;;;5087120;28;20485;-68
2022/03/10 14:03:24;;;;;;;;;;;;;;;;;;5086543;28;19975;-68
2022/03/10 14:05:50;;;;;;;;;;;;;;;;;;5087069;28;19999;-67
2022/03/10 14:08:18;;;;;;;;;;;;;;;;;;5086996;28;19960;-68
2022/03/10 14:10:44;;;;;;;;;;;;;;;;;;5086582;28;20009;-68
2022/03/10 14:13:10;;;;;;;;;;;;;;;;;;5086359;28;19986;-68
2022/03/10 14:15:36;;;;;;;;;;;;;;;;;;5088437;28;19978;-68
2022/03/10 14:18:03;;;;;;;;;;;;;;;;;;5090905;28;19961;-67
2022/03/10 14:20:29;;;;;;;;;;;;;;;;;;5088128;28;19962;-68
2022/03/10 14:22:55;;;;;;;;;;;;;;;;;;5089885;28;19958;-67
2022/03/10 14:25:24;;;;;;;;;;;;;;;;;;5090486;28;20407;-68
2022/03/10 14:27:50;;;;;;;;;;;;;;;;;;5090912;28;20188;-67
2022/03/10 14:30:16;;;;;;;;;;;;;;;;;;5091051;28;20318;-67
2022/03/10 14:32:44;;;;;;;;;;;;;;;;;;5082044;28;19932;-68
2022/03/10 14:35:10;;;;;;;;;;;;;;;;;;5090144;28;19964;-67
2022/03/10 14:37:37;;;;;;;;;;;;;;;;;;5092266;28;19974;-67
2022/03/10 14:40:05;;;;;;;;;;;;;;;;;;5077116;28;20322;-68
2022/03/10 14:42:31;;;;;;;;;;;;;;;;;;5085339;28;19956;-68
2022/03/10 14:44:57;;;;;;;;;;;;;;;;;;5081927;28;19983;-67
2022/03/10 14:47:23;;;;;;;;;;;;;;;;;;5085385;28;19957;-68
2022/03/10 14:49:49;;;;;;;;;;;;;;;;;;5084081;28;20422;-67
2022/03/10 14:52:19;;;;;;;;;;;;;;;;;;5085478;28;20338;-65
2022/03/10 14:54:45;;;;;;;;;;;;;;;;;;5081804;28;19974;-65
2022/03/10 14:57:12;;;;;;;;;;;;;;;;;;5078396;28;19992;-66
2022/03/10 14:59:38;;;;;;;;;;;;;;;;;;5083557;28;19961;-66
2022/03/10 15:02:04;;;;;;;;;;;;;;;;;;5084468;28;19965;-66
2022/03/10 15:04:32;;;;;;;;;;;;;;;;;;5084592;28;20382;-65
2022/03/10 15:06:58;;;;;;;;;;;;;;;;;;5082641;28;19979;-66
2022/03/10 15:09:24;;;;;;;;;;;;;;;;;;5082781;28;19961;-66
2022/03/10 15:11:50;;;;;;;;;;;;;;;;;;5080324;28;20156;-65
2022/03/10 15:14:16;;;;;;;;;;;;;;;;;;5083377;28;19993;-65
2022/03/10 15:16:44;;;;;;;;;;;;;;;;;;5077717;28;19986;-65
2022/03/10 15:19:10;;;;;;;;;;;;;;;;;;5084536;28;20069;-64
2022/03/10 15:21:36;;;;;;;;;;;;;;;;;;5086950;28;19978;-65
2022/03/10 15:24:02;;;;;;;;;;;;;;;;;;5088499;28;19995;-65
2022/03/10 15:26:29;;;;;;;;;;;;;;;;;;5089367;28;20442;-65
2022/03/10 15:28:55;;;;;;;;;;;;;;;;;;5087955;28;19964;-64
2022/03/10 15:31:22;;;;;;;;;;;;;;;;;;5087645;28;19976;-65
2022/03/10 15:33:48;;;;;;;;;;;;;;;;;;5087489;28;20364;-66
2022/03/10 15:36:15;;;;;;;;;;;;;;;;;;5088745;28;20000;-64
2022/03/10 15:38:42;;;;;;;;;;;;;;;;;;5090755;28;20014;-65
2022/03/10 15:41:08;;;;;;;;;;;;;;;;;;5092222;28;20444;-64
2022/03/10 15:43:34;;;;;;;;;;;;;;;;;;5093005;28;19992;-65
2022/03/10 15:46:01;;;;;;;;;;;;;;;;;;5092451;28;19973;-66
2022/03/10 15:48:28;;;;;;;;;;;;;;;;;;5093612;28;20257;-66
2022/03/10 15:50:54;;;;;;;;;;;;;;;;;;5091511;28;19980;-66
2022/03/10 15:53:25;;;;;;;;;;;;;;;;;;5088338;28;20551;-65
2022/03/10 15:55:51;;;;;;;;;;;;;;;;;;5085579;28;19950;-65
2022/03/10 15:58:18;;;;;;;;;;;;;;;;;;5088309;28;19983;-66
2022/03/10 16:00:44;;;;;;;;;;;;;;;;;;5088538;28;20535;-64
2022/03/10 16:03:10;;;;;;;;;;;;;;;;;;5087383;28;20037;-66
2022/03/10 16:05:37;;;;;;;;;;;;;;;;;;5084591;28;20348;-65
2022/03/10 16:08:03;;;;;;;;;;;;;;;;;;5081748;28;20414;-66
2022/03/10 16:10:29;;;;;;;;;;;;;;;;;;5085263;28;20360;-67
2022/03/10 16:12:55;;;;;;;;;;;;;;;;;;5083930;28;20000;-66
2022/03/10 16:15:21;;;;;;;;;;;;;;;;;;5086473;28;19988;-65
2022/03/10 16:17:47;;;;;;;;;;;;;;;;;;5085762;28;19993;-65
2022/03/10 16:20:14;;;;;;;;;;;;;;;;;;5085588;28;19980;-65
2022/03/10 16:22:42;;;;;;;;;;;;;;;;;;5083714;28;19987;-66
2022/03/10 16:25:10;;;;;;;;;;;;;;;;;;5081133;28;20003;-65
2022/03/10 16:27:36;;;;;;;;;;;;;;;;;;5086391;28;20357;-64
2022/03/10 16:30:03;;;;;;;;;;;;;;;;;;5080338;28;19985;-65
2022/03/10 16:32:29;;;;;;;;;;;;;;;;;;5080720;28;19977;-66
2022/03/10 16:34:55;;;;;;;;;;;;;;;;;;5078951;28;20000;-66
2022/03/10 16:37:21;;;;;;;;;;;;;;;;;;5080214;28;20098;-66
2022/03/10 16:39:48;;;;;;;;;;;;;;;;;;5082094;28;19980;-65
2022/03/10 16:42:16;;;;;;;;;;;;;;;;;;5081145;28;20372;-65
2022/03/10 16:44:43;;;;;;;;;;;;;;;;;;5083470;28;20455;-66
2022/03/10 16:47:12;;;;;;;;;;;;;;;;;;5087628;28;20381;-65
2022/03/10 16:49:38;;;;;;;;;;;;;;;;;;5088199;28;19987;-65
2022/03/10 16:52:04;;;;;;;;;;;;;;;;;;5087602;28;19984;-66
2022/03/10 16:54:30;;;;;;;;;;;;;;;;;;5085407;28;20501;-65
2022/03/10 16:56:56;;;;;;;;;;;;;;;;;;5087752;28;20019;-65
2022/03/10 16:59:23;;;;;;;;;;;;;;;;;;5087194;28;19977;-66
2022/03/10 17:01:49;;;;;;;;;;;;;;;;;;5088356;28;19996;-64
2022/03/10 17:04:15;;;;;;;;;;;;;;;;;;5085508;28;20003;-66
2022/03/10 17:06:41;;;;;;;;;;;;;;;;;;5084231;28;19977;-65
2022/03/10 17:09:07;;;;;;;;;;;;;;;;;;5087461;28;20470;-65
2022/03/10 17:11:34;;;;;;;;;;;;;;;;;;5087658;28;19981;-64
2022/03/10 17:14:00;;;;;;;;;;;;;;;;;;5086327;28;19992;-65
2022/03/10 17:16:26;;;;;;;;;;;;;;;;;;5087524;28;19993;-66
2022/03/10 17:18:52;;;;;;;;;;;;;;;;;;5087001;28;19984;-65
2022/03/10 17:21:18;;;;;;;;;;;;;;;;;;5079075;28;20091;-64
2022/03/10 17:23:45;;;;;;;;;;;;;;;;;;5077747;28;20079;-58
2022/03/10 17:26:11;;;;;;;;;;;;;;;;;;5084173;28;19976;-66
2022/03/10 17:28:37;;;;;;;;;;;;;;;;;;5085884;28;19984;-65
2022/03/10 17:31:03;;;;;;;;;;;;;;;;;;5087800;28;19991;-65
2022/03/10 17:33:29;;;;;;;;;;;;;;;;;;5086488;28;20384;-65
2022/03/10 17:35:57;;;;;;;;;;;;;;;;;;5084582;28;19977;-65
2022/03/10 17:38:23;;;;;;;;;;;;;;;;;;5085348;28;20026;-66
2022/03/10 17:40:49;;;;;;;;;;;;;;;;;;5087916;28;20007;-66
2022/03/10 17:43:15;;;;;;;;;;;;;;;;;;5087259;28;19978;-65
2022/03/10 17:45:41;;;;;;;;;;;;;;;;;;5085782;28;20038;-64
2022/03/10 17:48:08;;;;;;;;;;;;;;;;;;5087401;28;19972;-65
2022/03/10 17:50:34;;;;;;;;;;;;;;;;;;5087352;28;20237;-65
2022/03/10 17:53:04;;;;;;;;;;;;;;;;;;5086919;28;19991;-66
2022/03/10 17:55:30;;;;;;;;;;;;;;;;;;5085308;28;20442;-65
2022/03/10 17:57:57;;;;;;;;;;;;;;;;;;5087164;28;20096;-66
2022/03/10 18:00:23;;;;;;;;;;;;;;;;;;5081619;28;19981;-65
2022/03/10 18:02:50;;;;;;;;;;;;;;;;;;5075617;28;21158;-66
2022/03/10 18:05:16;;;;;;;;;;;;;;;;;;5077365;28;19980;-65
2022/03/10 18:07:42;;;;;;;;;;;;;;;;;;5081717;28;19977;-60
2022/03/10 18:10:09;;;;;;;;;;;;;;;;;;5083294;28;20041;-61
2022/03/10 18:12:35;;;;;;;;;;;;;;;;;;5080492;28;20020;-60
2022/03/10 18:15:01;;;;;;;;;;;;;;;;;;5082605;28;19988;-61
2022/03/10 18:17:27;;;;;;;;;;;;;;;;;;5080729;28;19996;-62
2022/03/10 18:19:53;;;;;;;;;;;;;;;;;;5083401;28;19976;-60
2022/03/10 18:22:20;;;;;;;;;;;;;;;;;;5085364;28;19984;-61
2022/03/10 18:24:46;;;;;;;;;;;;;;;;;;5087184;28;20032;-61
2022/03/10 18:27:12;;;;;;;;;;;;;;;;;;5080288;28;20445;-59
2022/03/10 18:29:39;;;;;;;;;;;;;;;;;;5082993;28;19976;-60
2022/03/10 18:32:05;;;;;;;;;;;;;;;;;;5083065;28;20351;-60
2022/03/10 18:34:34;;;;;;;;;;;;;;;;;;5086447;28;20004;-60
2022/03/10 18:37:00;;;;;;;;;;;;;;;;;;5086682;28;19997;-61
2022/03/10 18:39:26;;;;;;;;;;;;;;;;;;5086554;28;19980;-61
2022/03/10 18:41:53;;;;;;;;;;;;;;;;;;5087015;28;19977;-60
2022/03/10 18:44:19;;;;;;;;;;;;;;;;;;5086517;28;20229;-59
2022/03/10 18:46:45;;;;;;;;;;;;;;;;;;5086918;28;19980;-59
2022/03/10 18:49:11;;;;;;;;;;;;;;;;;;5082579;28;19981;-61
2022/03/10 18:51:37;;;;;;;;;;;;;;;;;;5085885;28;19990;-60
2022/03/10 18:54:04;;;;;;;;;;;;;;;;;;5087400;28;19999;-62
2022/03/10 18:56:30;;;;;;;;;;;;;;;;;;5087786;28;19980;-61
2022/03/10 18:58:57;;;;;;;;;;;;;;;;;;5086919;28;20061;-60
2022/03/10 19:01:23;;;;;;;;;;;;;;;;;;5082540;28;19972;-62
2022/03/10 19:03:49;;;;;;;;;;;;;;;;;;5092108;28;20004;-60